createdAt,value
2018-11-06T00:01:19.192Z,6.60
2018-11-06T00:03:52.657Z,6.73
2018-11-06T00:06:21.152Z,6.91
2018-11-06T00:08:49.653Z,6.90
2018-11-06T00:11:18.555Z,6.79
2018-11-06T00:13:47.939Z,6.84
2018-11-06T00:16:16.430Z,7.00
2018-11-06T00:18:44.879Z,7.15
2018-11-06T00:21:14.044Z,7.24
2018-11-06T00:23:43.198Z,6.98
2018-11-06T00:26:12.755Z,6.91
2018-11-06T00:28:41.195Z,6.87
2018-11-06T00:31:10.417Z,7.07
2018-11-06T00:33:38.860Z,7.06
2018-11-06T00:36:07.379Z,7.08
2018-11-06T00:38:36.056Z,6.98
2018-11-06T00:41:05.344Z,6.71
2018-11-06T00:43:33.806Z,6.46
2018-11-06T00:46:02.288Z,6.61
2018-11-06T00:48:30.723Z,6.35
2018-11-06T00:50:59.199Z,6.27
2018-11-06T00:53:27.659Z,6.49
2018-11-06T00:55:56.671Z,6.48
2018-11-06T00:58:25.098Z,6.39
2018-11-06T01:00:53.587Z,6.25
2018-11-06T01:03:26.167Z,5.99
2018-11-06T01:05:54.624Z,6.04
2018-11-06T01:08:23.085Z,5.93
2018-11-06T01:10:51.571Z,6.02
2018-11-06T01:13:20.030Z,5.83
2018-11-06T01:15:48.599Z,5.93
2018-11-06T01:18:17.041Z,5.79
2018-11-06T01:20:45.475Z,5.85
2018-11-06T01:23:13.954Z,5.71
2018-11-06T01:25:42.398Z,5.78
2018-11-06T01:28:11.509Z,5.90
2018-11-06T01:30:40.021Z,5.95
2018-11-06T01:33:08.505Z,5.96
2018-11-06T01:35:36.998Z,5.98
2018-11-06T01:38:05.979Z,5.99
2018-11-06T01:40:34.461Z,6.25
2018-11-06T01:43:03.615Z,6.09
2018-11-06T01:45:32.103Z,6.05
2018-11-06T01:48:00.574Z,5.96
2018-11-06T01:50:29.112Z,5.88
2018-11-06T01:52:57.643Z,5.84
2018-11-06T01:55:26.107Z,5.89
2018-11-06T01:57:54.595Z,5.90
2018-11-06T02:00:23.050Z,5.94
2018-11-06T02:02:51.586Z,6.02
2018-11-06T02:05:20.044Z,6.01
2018-11-06T02:07:49.571Z,6.26
2018-11-06T02:10:18.476Z,6.15
2018-11-06T02:12:47.485Z,5.96
2018-11-06T02:15:15.940Z,5.87
2018-11-06T02:17:45.197Z,5.75
2018-11-06T02:20:14.955Z,5.94
2018-11-06T02:22:44.153Z,5.89
2018-11-06T02:25:13.135Z,5.74
2018-11-06T02:27:41.590Z,5.87
2018-11-06T02:30:12.171Z,6.00
2018-11-06T02:32:41.314Z,6.21
2018-11-06T02:35:10.069Z,6.06
2018-11-06T02:37:38.866Z,6.10
2018-11-06T02:40:08.641Z,6.07
2018-11-06T02:42:37.173Z,6.46
2018-11-06T02:45:05.785Z,6.55
2018-11-06T02:47:34.278Z,6.68
2018-11-06T02:50:02.706Z,6.43
2018-11-06T02:52:31.215Z,6.37
2018-11-06T02:54:59.619Z,6.28
2018-11-06T02:57:28.563Z,6.16
2018-11-06T02:59:57.071Z,5.82
2018-11-06T03:02:25.576Z,5.70
2018-11-06T03:04:54.010Z,5.63
2018-11-06T03:07:22.551Z,5.84
2018-11-06T03:09:51.095Z,5.80
2018-11-06T03:12:19.562Z,5.64
2018-11-06T03:14:48.651Z,5.56
2018-11-06T03:17:17.100Z,5.57
2018-11-06T03:19:45.594Z,5.85
2018-11-06T03:22:14.826Z,5.81
2018-11-06T03:24:43.286Z,5.78
2018-11-06T03:27:12.687Z,6.12
2018-11-06T03:29:41.210Z,6.10
2018-11-06T03:32:09.680Z,5.95
2018-11-06T03:34:38.234Z,5.98
2018-11-06T03:37:06.977Z,6.00
2018-11-06T03:39:35.518Z,5.90
2018-11-06T03:42:03.936Z,5.73
2018-11-06T03:44:32.668Z,6.11
2018-11-06T03:47:01.566Z,6.38
2018-11-06T03:49:30.752Z,5.98
2018-11-06T03:51:59.477Z,6.05
2018-11-06T03:54:28.844Z,6.21
2018-11-06T03:56:57.408Z,6.26
2018-11-06T03:59:25.928Z,6.17
2018-11-06T04:01:54.371Z,6.41
2018-11-06T04:04:22.905Z,6.58
2018-11-06T04:06:52.151Z,6.36
2018-11-06T04:09:21.733Z,6.51
2018-11-06T04:11:50.349Z,6.37
2018-11-06T04:14:19.315Z,6.35
2018-11-06T04:16:47.987Z,6.42
2018-11-06T04:19:16.516Z,6.53
2018-11-06T04:21:44.954Z,6.68
2018-11-06T04:24:14.687Z,6.76
2018-11-06T04:26:43.131Z,6.71
2018-11-06T04:29:12.216Z,6.74
2018-11-06T04:31:40.973Z,6.68
2018-11-06T04:34:10.013Z,6.76
2018-11-06T04:36:39.166Z,6.69
2018-11-06T04:39:10.608Z,6.49
2018-11-06T04:41:39.361Z,6.42
2018-11-06T04:44:07.979Z,6.47
2018-11-06T04:46:36.481Z,6.60
2018-11-06T04:49:05.508Z,6.60
2018-11-06T04:51:33.959Z,6.52
2018-11-06T04:54:03.022Z,6.47
2018-11-06T04:56:32.019Z,6.57
2018-11-06T04:59:00.480Z,6.58
2018-11-06T05:01:28.966Z,6.42
2018-11-06T05:03:57.459Z,6.52
2018-11-06T05:06:26.065Z,6.59
2018-11-06T05:08:54.502Z,6.67
2018-11-06T05:11:23.579Z,6.60
2018-11-06T05:13:52.079Z,6.53
2018-11-06T05:16:20.536Z,6.52
2018-11-06T05:18:48.998Z,6.57
2018-11-06T05:21:17.426Z,6.19
2018-11-06T05:23:45.865Z,6.40
2018-11-06T05:26:14.436Z,6.42
2018-11-06T05:28:42.887Z,6.40
2018-11-06T05:31:11.346Z,6.38
2018-11-06T05:33:40.215Z,6.38
2018-11-06T05:36:09.172Z,6.40
2018-11-06T05:38:37.700Z,6.34
2018-11-06T05:41:07.349Z,6.17
2018-11-06T05:43:36.444Z,6.26
2018-11-06T05:46:05.064Z,6.33
2018-11-06T05:48:33.521Z,6.45
2018-11-06T05:51:02.249Z,6.38
2018-11-06T05:53:30.699Z,6.29
2018-11-06T05:55:59.589Z,6.30
2018-11-06T05:58:28.106Z,6.31
2018-11-06T06:00:56.575Z,6.31
2018-11-06T06:03:25.135Z,6.24
2018-11-06T06:05:54.105Z,6.28
2018-11-06T06:08:22.528Z,6.37
2018-11-06T06:10:51.940Z,6.43
2018-11-06T06:13:20.466Z,6.54
2018-11-06T06:15:48.879Z,6.60
2018-11-06T06:18:17.350Z,6.65
2018-11-06T06:20:45.944Z,6.65
2018-11-06T06:23:14.410Z,6.67
2018-11-06T06:25:42.888Z,6.68
2018-11-06T06:28:11.327Z,6.71
2018-11-06T06:30:40.146Z,6.73
2018-11-06T06:33:08.632Z,6.67
2018-11-06T06:35:37.136Z,6.71
2018-11-06T06:38:06.068Z,6.70
2018-11-06T06:40:34.577Z,6.75
2018-11-06T06:43:03.022Z,6.71
2018-11-06T06:45:31.534Z,6.82
2018-11-06T06:47:59.998Z,6.80
2018-11-06T06:50:28.886Z,6.81
2018-11-06T06:52:57.446Z,6.84
2018-11-06T06:55:26.104Z,6.88
2018-11-06T06:57:54.595Z,6.81
2018-11-06T07:00:23.759Z,6.88
2018-11-06T07:02:53.154Z,6.83
2018-11-06T07:05:22.735Z,6.73
2018-11-06T07:07:51.223Z,6.93
2018-11-06T07:10:22.027Z,7.19
2018-11-06T07:12:51.580Z,7.46
2018-11-06T07:15:21.179Z,7.58
2018-11-06T07:17:50.414Z,7.67
2018-11-06T07:20:20.111Z,7.81
2018-11-06T07:22:49.007Z,7.86
2018-11-06T07:25:17.692Z,7.59
2018-11-06T07:27:47.085Z,7.61
2018-11-06T07:30:20.450Z,7.51
2018-11-06T07:32:48.969Z,7.65
2018-11-06T07:35:19.007Z,7.68
2018-11-06T07:37:47.486Z,7.66
2018-11-06T07:40:18.688Z,7.73
2018-11-06T07:42:47.139Z,7.81
2018-11-06T07:45:17.188Z,7.63
2018-11-06T07:47:45.714Z,7.85
2018-11-06T07:50:14.669Z,7.88
2018-11-06T07:52:43.463Z,7.51
2018-11-06T07:55:13.384Z,7.27
2018-11-06T07:57:41.906Z,7.31
2018-11-06T08:00:14.523Z,7.09
2018-11-06T08:02:43.562Z,7.08
2018-11-06T08:05:13.358Z,7.36
2018-11-06T08:07:42.054Z,7.33
2018-11-06T08:10:11.028Z,7.50
2018-11-06T08:12:40.979Z,7.71
2018-11-06T08:15:09.835Z,7.64
2018-11-06T08:17:38.842Z,7.61
2018-11-06T08:20:07.771Z,7.79
2018-11-06T08:22:36.473Z,7.42
2018-11-06T08:25:05.943Z,8.35
2018-11-06T08:27:34.507Z,9.12
2018-11-06T08:30:02.955Z,8.75
2018-11-06T08:32:31.894Z,8.27
2018-11-06T08:34:59.966Z,8.40
2018-11-06T08:37:28.926Z,8.69
2018-11-06T08:39:57.394Z,8.72
2018-11-06T08:42:26.744Z,8.42
2018-11-06T08:44:55.670Z,8.50
2018-11-06T08:47:24.158Z,8.54
2018-11-06T08:49:53.123Z,8.53
2018-11-06T08:52:21.577Z,8.64
2018-11-06T08:54:50.759Z,8.76
2018-11-06T08:57:19.246Z,9.03
2018-11-06T08:59:47.735Z,9.06
2018-11-06T09:02:16.255Z,9.03
2018-11-06T09:04:44.752Z,9.26
2018-11-06T09:07:13.830Z,9.15
2018-11-06T09:09:42.288Z,8.88
2018-11-06T09:12:10.971Z,9.19
2018-11-06T09:14:39.415Z,9.30
2018-11-06T09:17:08.004Z,9.43
2018-11-06T09:19:36.471Z,9.41
2018-11-06T09:22:04.914Z,9.04
2018-11-06T09:24:34.133Z,9.33
2018-11-06T09:27:02.624Z,9.58
2018-11-06T09:29:32.489Z,9.38
2018-11-06T09:32:03.417Z,9.16
2018-11-06T09:34:32.033Z,9.65
2018-11-06T09:37:00.480Z,9.75
2018-11-06T09:39:29.198Z,9.64
2018-11-06T09:41:57.668Z,9.84
2018-11-06T09:44:26.207Z,9.70
2018-11-06T09:46:54.712Z,9.97
2018-11-06T09:49:23.172Z,9.74
2018-11-06T09:51:51.708Z,10.22
2018-11-06T09:54:21.306Z,10.36
2018-11-06T09:56:49.865Z,10.52
2018-11-06T09:59:19.216Z,10.00
2018-11-06T10:01:47.811Z,9.71
2018-11-06T10:04:16.334Z,10.18
2018-11-06T10:06:45.017Z,10.39
2018-11-06T10:09:14.527Z,10.41
2018-11-06T10:11:43.012Z,10.85
2018-11-06T10:14:11.675Z,11.26
2018-11-06T10:16:40.135Z,11.54
2018-11-06T10:19:08.641Z,11.51
2018-11-06T10:21:37.193Z,11.27
2018-11-06T10:24:06.402Z,11.04
2018-11-06T10:26:35.683Z,10.82
2018-11-06T10:29:04.570Z,10.70
2018-11-06T10:31:33.796Z,10.99
2018-11-06T10:34:02.273Z,11.52
2018-11-06T10:36:32.106Z,11.77
2018-11-06T10:39:00.598Z,12.13
2018-11-06T10:41:30.112Z,12.31
2018-11-06T10:43:58.630Z,12.43
2018-11-06T10:46:27.125Z,12.59
2018-11-06T10:48:55.535Z,12.81
2018-11-06T10:51:24.018Z,12.75
2018-11-06T10:53:52.536Z,12.91
2018-11-06T10:56:21.044Z,13.02
2018-11-06T10:58:49.509Z,13.04
2018-11-06T11:02:23.680Z,13.43
2018-11-06T11:04:52.163Z,13.77
2018-11-06T11:07:20.664Z,13.94
2018-11-06T11:09:49.702Z,14.03
2018-11-06T11:12:19.207Z,14.34
2018-11-06T11:14:47.691Z,14.26
2018-11-06T11:17:16.203Z,14.53
2018-11-06T11:19:44.716Z,14.87
2018-11-06T11:22:13.267Z,15.15
2018-11-06T11:24:41.793Z,15.05
2018-11-06T11:27:10.688Z,15.58
2018-11-06T11:29:39.432Z,15.34
2018-11-06T11:32:08.571Z,15.73
2018-11-06T11:34:37.091Z,16.01
2018-11-06T11:37:05.523Z,16.26
2018-11-06T11:39:33.935Z,16.45
2018-11-06T11:42:02.523Z,16.52
2018-11-06T11:44:30.999Z,16.49
2018-11-06T11:46:59.616Z,15.66
2018-11-06T11:49:28.382Z,15.53
2018-11-06T11:51:57.679Z,16.27
2018-11-06T11:54:26.205Z,16.07
2018-11-06T11:56:55.644Z,16.70
2018-11-06T11:59:24.124Z,16.41
2018-11-06T12:01:52.827Z,16.44
2018-11-06T12:04:22.372Z,15.88
2018-11-06T12:06:50.943Z,15.34
2018-11-06T12:09:19.403Z,15.48
2018-11-06T12:11:48.357Z,16.18
2018-11-06T12:14:17.547Z,14.99
2018-11-06T12:16:46.135Z,15.44
2018-11-06T12:19:16.039Z,16.24
2018-11-06T12:21:44.676Z,16.28
2018-11-06T12:24:13.870Z,16.02
2018-11-06T12:26:43.343Z,16.01
2018-11-06T12:29:12.480Z,16.17
2018-11-06T12:31:40.951Z,16.10
2018-11-06T12:34:09.472Z,16.39
2018-11-06T12:36:38.541Z,16.48
2018-11-06T12:39:10.028Z,16.11
2018-11-06T12:41:38.471Z,15.83
2018-11-06T12:44:07.260Z,15.75
2018-11-06T12:46:36.239Z,15.56
2018-11-06T12:49:06.139Z,15.82
2018-11-06T12:51:34.710Z,15.89
2018-11-06T12:54:03.488Z,15.24
2018-11-06T12:56:32.006Z,15.57
2018-11-06T12:59:00.606Z,15.71
2018-11-06T13:01:29.227Z,15.84
2018-11-06T13:03:57.715Z,15.19
2018-11-06T13:06:26.226Z,15.53
2018-11-06T13:08:54.831Z,15.75
2018-11-06T13:11:23.616Z,15.64
2018-11-06T13:13:52.372Z,15.55
2018-11-06T13:16:20.892Z,15.64
2018-11-06T13:18:49.398Z,15.71
2018-11-06T13:21:17.926Z,15.56
2018-11-06T13:23:46.402Z,15.51
2018-11-06T13:26:15.126Z,15.52
2018-11-06T13:28:43.954Z,15.41
2018-11-06T13:31:13.415Z,15.26
2018-11-06T13:33:42.580Z,15.12
2018-11-06T13:36:11.803Z,15.13
2018-11-06T13:38:40.349Z,14.77
2018-11-06T13:41:09.395Z,14.68
2018-11-06T13:43:38.044Z,14.30
2018-11-06T13:46:06.471Z,14.25
2018-11-06T13:48:34.940Z,14.20
2018-11-06T13:51:03.439Z,13.98
2018-11-06T13:53:31.951Z,13.88
2018-11-06T13:56:00.432Z,13.89
2018-11-06T13:58:28.949Z,13.99
2018-11-06T14:00:57.402Z,13.99
2018-11-06T14:03:25.914Z,14.14
2018-11-06T14:05:54.519Z,14.14
2018-11-06T14:08:22.993Z,13.71
2018-11-06T14:10:52.024Z,13.47
2018-11-06T14:13:20.568Z,13.56
2018-11-06T14:15:49.087Z,13.40
2018-11-06T14:18:17.634Z,13.50
2018-11-06T14:20:46.951Z,13.48
2018-11-06T14:23:15.503Z,13.47
2018-11-06T14:25:44.004Z,13.36
2018-11-06T14:28:12.509Z,13.37
2018-11-06T14:30:40.945Z,13.26
2018-11-06T14:33:09.451Z,13.44
2018-11-06T14:35:38.601Z,13.31
2018-11-06T14:38:07.193Z,13.35
2018-11-06T14:40:35.695Z,13.43
2018-11-06T14:43:04.260Z,13.40
2018-11-06T14:45:32.806Z,13.38
2018-11-06T14:48:01.535Z,13.28
2018-11-06T14:50:29.911Z,13.19
2018-11-06T14:52:58.724Z,13.02
2018-11-06T14:55:27.259Z,12.97
2018-11-06T14:57:55.748Z,12.93
2018-11-06T15:00:25.403Z,12.91
2018-11-06T15:02:54.279Z,13.02
2018-11-06T15:05:23.388Z,12.95
2018-11-06T15:07:56.056Z,12.79
2018-11-06T15:10:24.596Z,12.89
2018-11-06T15:12:53.162Z,12.90
2018-11-06T15:15:25.331Z,12.86
2018-11-06T15:17:53.904Z,12.79
2018-11-06T15:20:23.185Z,12.73
2018-11-06T15:22:52.717Z,12.74
2018-11-06T15:25:21.291Z,12.70
2018-11-06T15:27:49.809Z,12.70
2018-11-06T15:30:19.366Z,12.56
2018-11-06T15:32:47.863Z,12.28
2018-11-06T15:35:17.933Z,12.12
2018-11-06T15:37:46.410Z,12.07
2018-11-06T15:40:16.491Z,12.08
2018-11-06T15:42:45.185Z,11.94
2018-11-06T15:45:15.838Z,11.91
2018-11-06T15:47:45.206Z,11.84
2018-11-06T15:50:14.913Z,11.80
2018-11-06T15:52:44.198Z,11.69
2018-11-06T15:55:12.675Z,11.68
2018-11-06T15:57:41.165Z,11.54
2018-11-06T16:00:13.675Z,11.43
2018-11-06T16:02:42.959Z,11.36
2018-11-06T16:05:11.537Z,11.28
2018-11-06T16:07:41.231Z,11.16
2018-11-06T16:10:13.583Z,11.05
2018-11-06T16:12:42.521Z,11.04
2018-11-06T16:15:11.186Z,11.02
2018-11-06T16:17:39.801Z,10.96
2018-11-06T16:20:10.349Z,10.86
2018-11-06T16:22:38.863Z,10.76
2018-11-06T16:25:10.171Z,10.68
2018-11-06T16:27:39.438Z,10.69
2018-11-06T16:30:09.902Z,10.47
2018-11-06T16:32:38.592Z,10.48
2018-11-06T16:35:08.679Z,10.43
2018-11-06T16:37:37.531Z,10.40
2018-11-06T16:40:06.490Z,10.40
2018-11-06T16:42:34.971Z,10.28
2018-11-06T16:45:03.494Z,10.20
2018-11-06T16:47:31.982Z,10.13
2018-11-06T16:50:00.525Z,10.05
2018-11-06T16:52:29.023Z,9.93
2018-11-06T16:54:57.568Z,9.91
2018-11-06T16:57:26.040Z,9.95
2018-11-06T16:59:54.777Z,10.00
2018-11-06T17:02:23.200Z,9.89
2018-11-06T17:04:51.650Z,9.88
2018-11-06T17:07:20.160Z,9.87
2018-11-06T17:09:48.651Z,9.86
2018-11-06T17:12:17.654Z,9.87
2018-11-06T17:14:46.135Z,9.69
2018-11-06T17:17:14.741Z,9.73
2018-11-06T17:19:43.126Z,9.72
2018-11-06T17:22:11.613Z,9.71
2018-11-06T17:24:41.856Z,9.85
2018-11-06T17:27:10.394Z,9.90
2018-11-06T17:29:38.805Z,9.89
2018-11-06T17:32:07.254Z,10.00
2018-11-06T17:34:35.800Z,9.99
2018-11-06T17:37:04.920Z,10.05
2018-11-06T17:39:33.727Z,10.00
2018-11-06T17:42:02.194Z,10.02
2018-11-06T17:44:30.733Z,9.96
2018-11-06T17:46:59.257Z,10.03
2018-11-06T17:49:27.733Z,9.97
2018-11-06T17:51:56.231Z,9.97
2018-11-06T17:54:24.694Z,9.94
2018-11-06T17:56:53.563Z,9.99
2018-11-06T17:59:22.032Z,9.93
2018-11-06T18:01:50.484Z,9.93
2018-11-06T18:04:19.023Z,9.97
2018-11-06T18:06:47.459Z,9.98
2018-11-06T18:09:15.971Z,9.81
2018-11-06T18:11:44.473Z,10.03
2018-11-06T18:14:12.968Z,10.05
2018-11-06T18:16:41.444Z,10.04
2018-11-06T18:19:09.931Z,10.03
2018-11-06T18:21:38.454Z,10.00
2018-11-06T18:24:06.881Z,9.96
2018-11-06T18:26:35.448Z,9.96
2018-11-06T18:29:03.897Z,9.95
2018-11-06T18:31:32.612Z,9.95
2018-11-06T18:34:01.102Z,9.86
2018-11-06T18:36:29.717Z,9.88
2018-11-06T18:38:58.264Z,9.86
2018-11-06T18:41:29.961Z,9.83
2018-11-06T18:43:59.156Z,9.70
2018-11-06T18:46:27.558Z,9.70
2018-11-06T18:48:56.026Z,9.67
2018-11-06T18:51:24.502Z,9.68
2018-11-06T18:53:53.938Z,9.64
2018-11-06T18:56:22.446Z,9.58
2018-11-06T18:58:50.914Z,9.59
2018-11-06T19:01:19.383Z,9.61
2018-11-06T19:03:47.939Z,9.60
2018-11-06T19:06:16.438Z,9.64
2018-11-06T19:08:44.977Z,9.63
2018-11-06T19:11:13.532Z,9.59
2018-11-06T19:13:42.068Z,9.49
2018-11-06T19:16:10.531Z,9.51
2018-11-06T19:18:39.050Z,9.35
2018-11-06T19:21:07.543Z,9.49
2018-11-06T19:23:37.022Z,9.51
2018-11-06T19:26:06.038Z,9.48
2018-11-06T19:28:34.613Z,9.42
2018-11-06T19:31:03.097Z,9.46
2018-11-06T19:33:31.897Z,9.39
2018-11-06T19:36:00.498Z,9.26
2018-11-06T19:38:29.759Z,9.31
2018-11-06T19:40:58.206Z,8.89
2018-11-06T19:43:26.710Z,9.25
2018-11-06T19:45:55.143Z,9.11
2018-11-06T19:48:24.231Z,9.00
2018-11-06T19:50:53.310Z,9.00
2018-11-06T19:53:22.046Z,8.99
2018-11-06T19:55:50.556Z,8.94
2018-11-06T19:58:20.044Z,8.90
2018-11-06T20:00:48.596Z,8.81
2018-11-06T20:03:16.971Z,8.89
2018-11-06T20:05:45.556Z,8.85
2018-11-06T20:08:14.027Z,8.89
2018-11-06T20:10:42.520Z,8.73
2018-11-06T20:13:10.976Z,8.71
2018-11-06T20:15:41.022Z,8.69
2018-11-06T20:18:09.551Z,8.65
2018-11-06T20:20:38.511Z,8.61
2018-11-06T20:23:06.991Z,8.26
2018-11-06T20:25:35.471Z,8.39
2018-11-06T20:28:04.053Z,8.47
2018-11-06T20:30:32.571Z,8.48
2018-11-06T20:33:01.132Z,8.37
2018-11-06T20:35:29.507Z,8.17
2018-11-06T20:37:58.074Z,8.24
2018-11-06T20:40:27.136Z,8.19
2018-11-06T20:42:55.745Z,8.16
2018-11-06T20:45:24.531Z,8.16
2018-11-06T20:47:53.008Z,8.11
2018-11-06T20:50:22.909Z,7.87
2018-11-06T20:52:51.443Z,7.93
2018-11-06T20:55:20.242Z,8.14
2018-11-06T20:57:48.669Z,8.27
2018-11-06T21:00:24.144Z,8.34
2018-11-06T21:02:54.342Z,8.41
2018-11-06T21:05:22.824Z,8.48
2018-11-06T21:07:51.315Z,8.50
2018-11-06T21:10:21.105Z,8.48
2018-11-06T21:12:49.546Z,8.18
2018-11-06T21:15:18.039Z,7.86
2018-11-06T21:17:46.592Z,7.96
2018-11-06T21:20:15.718Z,8.23
2018-11-06T21:22:44.335Z,8.47
2018-11-06T21:25:13.507Z,8.55
2018-11-06T21:27:42.434Z,8.60
2018-11-06T21:30:14.704Z,8.62
2018-11-06T21:32:44.473Z,8.50
2018-11-06T21:35:13.001Z,8.48
2018-11-06T21:37:41.512Z,8.53
2018-11-06T21:40:13.482Z,8.54
2018-11-06T21:42:42.937Z,8.61
2018-11-06T21:45:12.532Z,8.66
2018-11-06T21:47:41.713Z,8.71
2018-11-06T21:50:11.397Z,8.76
2018-11-06T21:52:40.025Z,8.79
2018-11-06T21:55:09.917Z,8.77
2018-11-06T21:57:38.613Z,8.79
2018-11-06T22:00:10.804Z,8.67
2018-11-06T22:02:39.167Z,8.61
2018-11-06T22:05:09.251Z,8.63
2018-11-06T22:07:37.695Z,8.70
2018-11-06T22:10:08.511Z,8.77
2018-11-06T22:12:37.138Z,8.80
2018-11-06T22:15:06.537Z,8.88
2018-11-06T22:17:35.491Z,8.89
2018-11-06T22:20:04.959Z,8.86
2018-11-06T22:22:33.514Z,8.77
2018-11-06T22:29:48.591Z,8.82
2018-11-06T22:32:17.931Z,8.88
2018-11-06T22:34:46.321Z,8.95
2018-11-06T22:37:14.825Z,8.90
2018-11-06T22:39:43.321Z,8.73
2018-11-06T22:42:11.847Z,8.78
2018-11-06T22:44:40.285Z,8.67
2018-11-06T22:47:09.676Z,8.81
2018-11-06T22:49:38.270Z,8.74
2018-11-06T22:52:07.170Z,8.70
2018-11-06T22:54:36.639Z,8.76
2018-11-06T22:57:05.852Z,8.81
2018-11-06T22:59:34.301Z,8.83
2018-11-06T23:02:03.778Z,8.85
2018-11-06T23:04:32.260Z,8.82
2018-11-06T23:07:01.461Z,8.71
2018-11-06T23:09:29.843Z,8.79
2018-11-06T23:11:58.320Z,8.75
2018-11-06T23:14:26.997Z,8.76
2018-11-06T23:16:56.392Z,8.73
2018-11-06T23:19:24.858Z,8.74
2018-11-06T23:21:54.038Z,8.74
2018-11-06T23:24:22.479Z,8.59
2018-11-06T23:26:51.535Z,8.52
2018-11-06T23:29:19.973Z,8.48
2018-11-06T23:31:48.395Z,8.40
2018-11-06T23:34:16.825Z,8.25
2018-11-06T23:36:46.008Z,8.28
2018-11-06T23:39:14.746Z,8.27
2018-11-06T23:41:43.209Z,8.17
2018-11-06T23:44:11.667Z,8.12
2018-11-06T23:46:40.172Z,7.97
2018-11-06T23:49:09.594Z,8.09
2018-11-06T23:51:38.043Z,8.09
2018-11-06T23:54:06.463Z,8.03
2018-11-06T23:56:35.093Z,7.93
2018-11-06T23:59:03.475Z,7.88
